sensor_id;sensor_type;location;lat;lon;timestamp;P1;durP1;ratioP1;P2;durP2;ratioP2
65751;SDS011;52486;51.098;13.770;2023-07-20T00:00:52;2.40;;;1.42;;
65751;SDS011;52486;51.098;13.770;2023-07-20T00:03:19;1.45;;;1.30;;
65751;SDS011;52486;51.098;13.770;2023-07-20T00:05:48;1.63;;;1.53;;
65751;SDS011;52486;51.098;13.770;2023-07-20T00:08:14;2.88;;;1.60;;
65751;SDS011;52486;51.098;13.770;2023-07-20T00:10:40;1.50;;;1.40;;
65751;SDS011;52486;51.098;13.770;2023-07-20T00:13:06;2.25;;;1.75;;
65751;SDS011;52486;51.098;13.770;2023-07-20T00:15:32;1.50;;;1.40;;
65751;SDS011;52486;51.098;13.770;2023-07-20T00:17:58;1.60;;;1.50;;
65751;SDS011;52486;51.098;13.770;2023-07-20T00:20:24;1.65;;;1.30;;
65751;SDS011;52486;51.098;13.770;2023-07-20T00:22:50;2.15;;;1.67;;
65751;SDS011;52486;51.098;13.770;2023-07-20T00:25:17;1.77;;;1.67;;
65751;SDS011;52486;51.098;13.770;2023-07-20T00:27:43;1.90;;;1.70;;
65751;SDS011;52486;51.098;13.770;2023-07-20T00:30:09;2.70;;;1.50;;
65751;SDS011;52486;51.098;13.770;2023-07-20T00:32:36;1.80;;;1.50;;
65751;SDS011;52486;51.098;13.770;2023-07-20T00:35:02;1.80;;;1.40;;
65751;SDS011;52486;51.098;13.770;2023-07-20T00:37:28;2.03;;;1.40;;
65751;SDS011;52486;51.098;13.770;2023-07-20T00:39:54;1.70;;;1.60;;
65751;SDS011;52486;51.098;13.770;2023-07-20T00:42:23;2.45;;;1.70;;
65751;SDS011;52486;51.098;13.770;2023-07-20T00:44:48;2.53;;;1.70;;
65751;SDS011;52486;51.098;13.770;2023-07-20T00:47:14;1.60;;;1.50;;
65751;SDS011;52486;51.098;13.770;2023-07-20T00:49:40;1.88;;;1.67;;
65751;SDS011;52486;51.098;13.770;2023-07-20T00:52:06;1.80;;;1.55;;
65751;SDS011;52486;51.098;13.770;2023-07-20T00:54:33;1.70;;;1.45;;
65751;SDS011;52486;51.098;13.770;2023-07-20T00:57:00;1.98;;;1.67;;
65751;SDS011;52486;51.098;13.770;2023-07-20T00:59:27;1.67;;;1.58;;
65751;SDS011;52486;51.098;13.770;2023-07-20T01:01:53;2.30;;;1.85;;
65751;SDS011;52486;51.098;13.770;2023-07-20T01:04:19;1.77;;;1.45;;
65751;SDS011;52486;51.098;13.770;2023-07-20T01:09:40;2.08;;;1.73;;
65751;SDS011;52486;51.098;13.770;2023-07-20T01:12:12;1.80;;;1.70;;
65751;SDS011;52486;51.098;13.770;2023-07-20T01:14:45;2.00;;;1.80;;
65751;SDS011;52486;51.098;13.770;2023-07-20T01:17:11;1.95;;;1.80;;
65751;SDS011;52486;51.098;13.770;2023-07-20T01:19:37;2.20;;;1.80;;
65751;SDS011;52486;51.098;13.770;2023-07-20T01:22:09;2.03;;;1.77;;
65751;SDS011;52486;51.098;13.770;2023-07-20T01:33:24;2.78;;;1.80;;
65751;SDS011;52486;51.098;13.770;2023-07-20T01:35:57;2.58;;;1.70;;
65751;SDS011;52486;51.098;13.770;2023-07-20T01:38:25;1.60;;;1.50;;
65751;SDS011;52486;51.098;13.770;2023-07-20T01:40:51;1.80;;;1.55;;
65751;SDS011;52486;51.098;13.770;2023-07-20T01:43:17;1.70;;;1.60;;
65751;SDS011;52486;51.098;13.770;2023-07-20T01:45:43;2.00;;;1.70;;
65751;SDS011;52486;51.098;13.770;2023-07-20T01:48:09;2.30;;;2.10;;
65751;SDS011;52486;51.098;13.770;2023-07-20T01:50:35;2.42;;;1.73;;
65751;SDS011;52486;51.098;13.770;2023-07-20T01:53:01;2.55;;;1.77;;
65751;SDS011;52486;51.098;13.770;2023-07-20T01:55:27;2.38;;;1.70;;
65751;SDS011;52486;51.098;13.770;2023-07-20T01:57:54;1.70;;;1.60;;
65751;SDS011;52486;51.098;13.770;2023-07-20T02:00:20;1.60;;;1.50;;
65751;SDS011;52486;51.098;13.770;2023-07-20T02:02:49;1.63;;;1.52;;
65751;SDS011;52486;51.098;13.770;2023-07-20T02:05:15;1.77;;;1.58;;
65751;SDS011;52486;51.098;13.770;2023-07-20T02:07:41;1.73;;;1.60;;
65751;SDS011;52486;51.098;13.770;2023-07-20T02:10:07;1.55;;;1.45;;
65751;SDS011;52486;51.098;13.770;2023-07-20T02:12:33;1.67;;;1.58;;
65751;SDS011;52486;51.098;13.770;2023-07-20T02:14:59;1.65;;;1.50;;
65751;SDS011;52486;51.098;13.770;2023-07-20T02:17:25;1.90;;;1.70;;
65751;SDS011;52486;51.098;13.770;2023-07-20T02:19:54;2.03;;;1.73;;
65751;SDS011;52486;51.098;13.770;2023-07-20T02:22:21;1.50;;;1.40;;
65751;SDS011;52486;51.098;13.770;2023-07-20T02:24:47;1.92;;;1.70;;
65751;SDS011;52486;51.098;13.770;2023-07-20T02:27:14;3.85;;;1.65;;
65751;SDS011;52486;51.098;13.770;2023-07-20T02:29:40;1.83;;;1.65;;
65751;SDS011;52486;51.098;13.770;2023-07-20T02:32:07;1.83;;;1.67;;
65751;SDS011;52486;51.098;13.770;2023-07-20T02:34:33;2.42;;;1.85;;
65751;SDS011;52486;51.098;13.770;2023-07-20T02:36:59;2.00;;;1.83;;
65751;SDS011;52486;51.098;13.770;2023-07-20T02:39:26;1.67;;;1.58;;
65751;SDS011;52486;51.098;13.770;2023-07-20T02:41:53;1.92;;;1.63;;
65751;SDS011;52486;51.098;13.770;2023-07-20T02:44:19;2.05;;;1.85;;
65751;SDS011;52486;51.098;13.770;2023-07-20T02:46:45;2.38;;;1.98;;
65751;SDS011;52486;51.098;13.770;2023-07-20T02:49:11;1.70;;;1.60;;
65751;SDS011;52486;51.098;13.770;2023-07-20T02:51:38;1.88;;;1.77;;
65751;SDS011;52486;51.098;13.770;2023-07-20T02:54:04;1.90;;;1.70;;
65751;SDS011;52486;51.098;13.770;2023-07-20T02:56:30;1.80;;;1.70;;
65751;SDS011;52486;51.098;13.770;2023-07-20T02:58:56;1.85;;;1.70;;
65751;SDS011;52486;51.098;13.770;2023-07-20T03:01:22;2.15;;;1.63;;
65751;SDS011;52486;51.098;13.770;2023-07-20T03:03:48;1.88;;;1.73;;
65751;SDS011;52486;51.098;13.770;2023-07-20T03:06:14;1.80;;;1.70;;
65751;SDS011;52486;51.098;13.770;2023-07-20T03:08:41;2.75;;;1.60;;
65751;SDS011;52486;51.098;13.770;2023-07-20T03:11:12;2.05;;;1.70;;
65751;SDS011;52486;51.098;13.770;2023-07-20T03:13:39;2.58;;;1.85;;
65751;SDS011;52486;51.098;13.770;2023-07-20T03:16:06;3.08;;;1.75;;
65751;SDS011;52486;51.098;13.770;2023-07-20T03:18:36;2.42;;;1.77;;
65751;SDS011;52486;51.098;13.770;2023-07-20T03:21:03;2.45;;;1.67;;
65751;SDS011;52486;51.098;13.770;2023-07-20T03:23:29;1.58;;;1.48;;
65751;SDS011;52486;51.098;13.770;2023-07-20T03:25:55;1.85;;;1.75;;
65751;SDS011;52486;51.098;13.770;2023-07-20T03:28:21;2.20;;;1.70;;
65751;SDS011;52486;51.098;13.770;2023-07-20T03:30:52;2.28;;;1.83;;
65751;SDS011;52486;51.098;13.770;2023-07-20T03:33:19;2.63;;;1.80;;
65751;SDS011;52486;51.098;13.770;2023-07-20T03:35:45;1.85;;;1.48;;
65751;SDS011;52486;51.098;13.770;2023-07-20T03:38:11;1.60;;;1.50;;
65751;SDS011;52486;51.098;13.770;2023-07-20T03:40:37;1.70;;;1.60;;
65751;SDS011;52486;51.098;13.770;2023-07-20T03:43:03;1.52;;;1.42;;
65751;SDS011;52486;51.098;13.770;2023-07-20T03:45:29;1.40;;;1.30;;
65751;SDS011;52486;51.098;13.770;2023-07-20T03:47:55;1.67;;;1.50;;
65751;SDS011;52486;51.098;13.770;2023-07-20T03:50:21;1.58;;;1.48;;
65751;SDS011;52486;51.098;13.770;2023-07-20T03:52:47;1.90;;;1.70;;
65751;SDS011;52486;51.098;13.770;2023-07-20T03:55:13;1.70;;;1.60;;
65751;SDS011;52486;51.098;13.770;2023-07-20T03:57:39;1.60;;;1.50;;
65751;SDS011;52486;51.098;13.770;2023-07-20T04:00:06;1.80;;;1.50;;
65751;SDS011;52486;51.098;13.770;2023-07-20T04:02:33;1.55;;;1.45;;
65751;SDS011;52486;51.098;13.770;2023-07-20T04:04:59;2.65;;;1.50;;
65751;SDS011;52486;51.098;13.770;2023-07-20T04:07:25;1.83;;;1.42;;
65751;SDS011;52486;51.098;13.770;2023-07-20T04:09:51;2.60;;;1.30;;
65751;SDS011;52486;51.098;13.770;2023-07-20T04:12:17;2.25;;;1.60;;
65751;SDS011;52486;51.098;13.770;2023-07-20T04:14:43;1.50;;;1.20;;
65751;SDS011;52486;51.098;13.770;2023-07-20T04:17:09;1.58;;;1.40;;
65751;SDS011;52486;51.098;13.770;2023-07-20T04:19:38;1.48;;;1.30;;
65751;SDS011;52486;51.098;13.770;2023-07-20T04:22:04;2.40;;;1.45;;
65751;SDS011;52486;51.098;13.770;2023-07-20T04:24:30;1.42;;;1.30;;
65751;SDS011;52486;51.098;13.770;2023-07-20T04:26:56;1.80;;;1.50;;
65751;SDS011;52486;51.098;13.770;2023-07-20T04:29:22;4.22;;;1.55;;
65751;SDS011;52486;51.098;13.770;2023-07-20T04:31:48;3.83;;;1.30;;
65751;SDS011;52486;51.098;13.770;2023-07-20T04:34:14;2.33;;;1.52;;
65751;SDS011;52486;51.098;13.770;2023-07-20T04:36:40;1.55;;;1.20;;
65751;SDS011;52486;51.098;13.770;2023-07-20T04:39:06;1.52;;;1.30;;
65751;SDS011;52486;51.098;13.770;2023-07-20T04:41:33;2.03;;;1.45;;
65751;SDS011;52486;51.098;13.770;2023-07-20T04:43:59;1.42;;;1.33;;
65751;SDS011;52486;51.098;13.770;2023-07-20T04:46:25;1.63;;;1.30;;
65751;SDS011;52486;51.098;13.770;2023-07-20T04:48:51;2.35;;;1.50;;
65751;SDS011;52486;51.098;13.770;2023-07-20T04:51:17;1.60;;;1.30;;
65751;SDS011;52486;51.098;13.770;2023-07-20T04:53:48;2.22;;;1.70;;
65751;SDS011;52486;51.098;13.770;2023-07-20T04:56:14;1.40;;;1.30;;
65751;SDS011;52486;51.098;13.770;2023-07-20T04:58:40;1.90;;;1.10;;
65751;SDS011;52486;51.098;13.770;2023-07-20T05:01:07;1.52;;;1.42;;
65751;SDS011;52486;51.098;13.770;2023-07-20T05:03:33;2.08;;;1.50;;
65751;SDS011;52486;51.098;13.770;2023-07-20T05:05:59;1.30;;;1.08;;
65751;SDS011;52486;51.098;13.770;2023-07-20T05:08:25;1.55;;;1.45;;
65751;SDS011;52486;51.098;13.770;2023-07-20T05:10:52;1.40;;;1.30;;
65751;SDS011;52486;51.098;13.770;2023-07-20T05:13:18;1.60;;;1.50;;
65751;SDS011;52486;51.098;13.770;2023-07-20T05:15:44;1.50;;;1.40;;
65751;SDS011;52486;51.098;13.770;2023-07-20T05:18:10;1.75;;;1.38;;
65751;SDS011;52486;51.098;13.770;2023-07-20T05:20:37;2.53;;;1.38;;
65751;SDS011;52486;51.098;13.770;2023-07-20T05:23:03;1.10;;;1.10;;
65751;SDS011;52486;51.098;13.770;2023-07-20T05:25:29;1.77;;;1.10;;
65751;SDS011;52486;51.098;13.770;2023-07-20T05:27:55;1.73;;;1.27;;
65751;SDS011;52486;51.098;13.770;2023-07-20T05:30:20;1.58;;;1.40;;
65751;SDS011;52486;51.098;13.770;2023-07-20T05:32:46;1.50;;;1.33;;
65751;SDS011;52486;51.098;13.770;2023-07-20T05:35:17;1.50;;;1.40;;
65751;SDS011;52486;51.098;13.770;2023-07-20T05:37:52;2.05;;;1.35;;
65751;SDS011;52486;51.098;13.770;2023-07-20T05:40:18;1.33;;;1.23;;
65751;SDS011;52486;51.098;13.770;2023-07-20T05:42:46;1.10;;;1.10;;
65751;SDS011;52486;51.098;13.770;2023-07-20T05:45:14;1.35;;;1.20;;
65751;SDS011;52486;51.098;13.770;2023-07-20T05:47:41;1.23;;;1.13;;
65751;SDS011;52486;51.098;13.770;2023-07-20T05:50:07;1.23;;;1.13;;
65751;SDS011;52486;51.098;13.770;2023-07-20T05:52:33;1.38;;;1.27;;
65751;SDS011;52486;51.098;13.770;2023-07-20T05:54:59;3.63;;;1.40;;
65751;SDS011;52486;51.098;13.770;2023-07-20T05:57:25;1.23;;;1.13;;
65751;SDS011;52486;51.098;13.770;2023-07-20T05:59:51;1.85;;;1.35;;
65751;SDS011;52486;51.098;13.770;2023-07-20T06:02:17;1.77;;;1.42;;
65751;SDS011;52486;51.098;13.770;2023-07-20T06:04:42;7.60;;;1.85;;
65751;SDS011;52486;51.098;13.770;2023-07-20T06:07:08;5.43;;;1.95;;
65751;SDS011;52486;51.098;13.770;2023-07-20T06:09:34;5.30;;;2.20;;
65751;SDS011;52486;51.098;13.770;2023-07-20T06:12:00;4.25;;;2.22;;
65751;SDS011;52486;51.098;13.770;2023-07-20T06:14:26;6.45;;;3.08;;
65751;SDS011;52486;51.098;13.770;2023-07-20T06:16:52;4.45;;;1.85;;
65751;SDS011;52486;51.098;13.770;2023-07-20T06:19:18;7.32;;;1.70;;
65751;SDS011;52486;51.098;13.770;2023-07-20T06:21:45;5.07;;;1.80;;
65751;SDS011;52486;51.098;13.770;2023-07-20T06:24:10;4.07;;;1.90;;
65751;SDS011;52486;51.098;13.770;2023-07-20T06:26:36;7.53;;;1.60;;
65751;SDS011;52486;51.098;13.770;2023-07-20T06:29:07;6.38;;;1.52;;
65751;SDS011;52486;51.098;13.770;2023-07-20T06:31:36;6.97;;;1.52;;
65751;SDS011;52486;51.098;13.770;2023-07-20T06:34:03;3.70;;;1.50;;
65751;SDS011;52486;51.098;13.770;2023-07-20T06:36:28;3.60;;;1.70;;
65751;SDS011;52486;51.098;13.770;2023-07-20T06:38:55;3.13;;;1.13;;
65751;SDS011;52486;51.098;13.770;2023-07-20T06:41:21;2.85;;;1.30;;
65751;SDS011;52486;51.098;13.770;2023-07-20T06:43:47;2.10;;;1.45;;
65751;SDS011;52486;51.098;13.770;2023-07-20T06:46:14;3.80;;;1.33;;
65751;SDS011;52486;51.098;13.770;2023-07-20T06:48:39;5.20;;;1.50;;
65751;SDS011;52486;51.098;13.770;2023-07-20T06:51:05;1.73;;;1.30;;
65751;SDS011;52486;51.098;13.770;2023-07-20T06:53:31;5.68;;;1.20;;
65751;SDS011;52486;51.098;13.770;2023-07-20T06:55:57;2.78;;;1.20;;
65751;SDS011;52486;51.098;13.770;2023-07-20T06:58:23;3.00;;;1.42;;
65751;SDS011;52486;51.098;13.770;2023-07-20T07:00:49;5.53;;;1.58;;
65751;SDS011;52486;51.098;13.770;2023-07-20T07:03:15;2.15;;;1.25;;
65751;SDS011;52486;51.098;13.770;2023-07-20T07:05:41;5.82;;;1.58;;
65751;SDS011;52486;51.098;13.770;2023-07-20T07:08:07;9.93;;;2.00;;
65751;SDS011;52486;51.098;13.770;2023-07-20T07:10:34;3.47;;;1.42;;
65751;SDS011;52486;51.098;13.770;2023-07-20T07:13:01;3.08;;;1.38;;
65751;SDS011;52486;51.098;13.770;2023-07-20T07:15:27;3.05;;;1.45;;
65751;SDS011;52486;51.098;13.770;2023-07-20T07:17:53;6.93;;;1.40;;
65751;SDS011;52486;51.098;13.770;2023-07-20T07:20:19;2.45;;;1.33;;
65751;SDS011;52486;51.098;13.770;2023-07-20T07:22:45;2.03;;;1.33;;
65751;SDS011;52486;51.098;13.770;2023-07-20T07:25:11;2.55;;;1.25;;
65751;SDS011;52486;51.098;13.770;2023-07-20T07:27:37;1.65;;;1.42;;
65751;SDS011;52486;51.098;13.770;2023-07-20T07:30:04;3.17;;;1.58;;
65751;SDS011;52486;51.098;13.770;2023-07-20T07:32:30;2.63;;;1.83;;
65751;SDS011;52486;51.098;13.770;2023-07-20T07:34:57;4.65;;;1.75;;
65751;SDS011;52486;51.098;13.770;2023-07-20T07:37:25;3.67;;;1.63;;
65751;SDS011;52486;51.098;13.770;2023-07-20T07:39:51;3.28;;;1.40;;
65751;SDS011;52486;51.098;13.770;2023-07-20T07:42:17;5.25;;;1.40;;
65751;SDS011;52486;51.098;13.770;2023-07-20T07:44:44;2.58;;;1.35;;
65751;SDS011;52486;51.098;13.770;2023-07-20T07:47:10;3.40;;;1.75;;
65751;SDS011;52486;51.098;13.770;2023-07-20T07:49:36;3.55;;;1.60;;
65751;SDS011;52486;51.098;13.770;2023-07-20T07:52:02;1.42;;;1.25;;
65751;SDS011;52486;51.098;13.770;2023-07-20T07:54:29;1.65;;;1.27;;
65751;SDS011;52486;51.098;13.770;2023-07-20T07:56:55;2.65;;;1.40;;
65751;SDS011;52486;51.098;13.770;2023-07-20T07:59:22;5.55;;;1.77;;
65751;SDS011;52486;51.098;13.770;2023-07-20T08:01:48;2.70;;;1.42;;
65751;SDS011;52486;51.098;13.770;2023-07-20T08:04:16;2.83;;;1.38;;
65751;SDS011;52486;51.098;13.770;2023-07-20T08:06:41;2.20;;;1.27;;
65751;SDS011;52486;51.098;13.770;2023-07-20T08:09:07;1.67;;;1.50;;
65751;SDS011;52486;51.098;13.770;2023-07-20T08:11:33;3.08;;;1.83;;
65751;SDS011;52486;51.098;13.770;2023-07-20T08:14:00;5.35;;;1.98;;
65751;SDS011;52486;51.098;13.770;2023-07-20T08:16:26;2.80;;;1.50;;
65751;SDS011;52486;51.098;13.770;2023-07-20T08:18:52;3.63;;;1.95;;
65751;SDS011;52486;51.098;13.770;2023-07-20T08:21:18;5.05;;;2.38;;
65751;SDS011;52486;51.098;13.770;2023-07-20T08:23:44;3.28;;;2.55;;
65751;SDS011;52486;51.098;13.770;2023-07-20T08:26:10;1.90;;;1.70;;
65751;SDS011;52486;51.098;13.770;2023-07-20T08:28:37;9.10;;;1.83;;
65751;SDS011;52486;51.098;13.770;2023-07-20T08:31:05;2.53;;;1.80;;
65751;SDS011;52486;51.098;13.770;2023-07-20T08:33:32;2.38;;;1.85;;
65751;SDS011;52486;51.098;13.770;2023-07-20T08:35:59;3.17;;;1.95;;
65751;SDS011;52486;51.098;13.770;2023-07-20T08:38:26;6.70;;;2.47;;
65751;SDS011;52486;51.098;13.770;2023-07-20T08:40:52;3.58;;;2.20;;
65751;SDS011;52486;51.098;13.770;2023-07-20T08:43:22;6.22;;;2.30;;
65751;SDS011;52486;51.098;13.770;2023-07-20T08:45:51;2.78;;;2.40;;
65751;SDS011;52486;51.098;13.770;2023-07-20T08:48:20;3.05;;;2.42;;
65751;SDS011;52486;51.098;13.770;2023-07-20T08:50:47;2.65;;;2.40;;
65751;SDS011;52486;51.098;13.770;2023-07-20T08:53:16;4.50;;;2.78;;
65751;SDS011;52486;51.098;13.770;2023-07-20T08:55:44;3.40;;;2.47;;
65751;SDS011;52486;51.098;13.770;2023-07-20T08:58:12;7.10;;;2.83;;
65751;SDS011;52486;51.098;13.770;2023-07-20T09:00:39;3.05;;;2.20;;
65751;SDS011;52486;51.098;13.770;2023-07-20T09:03:06;7.22;;;2.20;;
65751;SDS011;52486;51.098;13.770;2023-07-20T09:05:33;5.15;;;1.90;;
65751;SDS011;52486;51.098;13.770;2023-07-20T09:08:00;3.58;;;2.00;;
65751;SDS011;52486;51.098;13.770;2023-07-20T09:10:28;5.20;;;2.00;;
65751;SDS011;52486;51.098;13.770;2023-07-20T09:12:54;2.40;;;2.20;;
65751;SDS011;52486;51.098;13.770;2023-07-20T09:15:21;2.30;;;2.10;;
65751;SDS011;52486;51.098;13.770;2023-07-20T09:17:48;2.10;;;1.90;;
65751;SDS011;52486;51.098;13.770;2023-07-20T09:20:15;3.97;;;2.17;;
65751;SDS011;52486;51.098;13.770;2023-07-20T09:22:42;3.47;;;2.25;;
65751;SDS011;52486;51.098;13.770;2023-07-20T09:25:15;3.97;;;2.25;;
65751;SDS011;52486;51.098;13.770;2023-07-20T09:27:43;2.33;;;2.13;;
65751;SDS011;52486;51.098;13.770;2023-07-20T09:30:10;1.70;;;1.60;;
65751;SDS011;52486;51.098;13.770;2023-07-20T09:32:39;3.20;;;2.10;;
65751;SDS011;52486;51.098;13.770;2023-07-20T09:35:06;2.17;;;1.98;;
65751;SDS011;52486;51.098;13.770;2023-07-20T09:37:37;2.33;;;1.92;;
65751;SDS011;52486;51.098;13.770;2023-07-20T09:40:06;5.25;;;2.00;;
65751;SDS011;52486;51.098;13.770;2023-07-20T09:42:36;4.88;;;2.10;;
65751;SDS011;52486;51.098;13.770;2023-07-20T09:45:05;7.47;;;2.10;;
65751;SDS011;52486;51.098;13.770;2023-07-20T09:47:33;2.85;;;2.05;;
65751;SDS011;52486;51.098;13.770;2023-07-20T09:50:03;2.90;;;2.20;;
65751;SDS011;52486;51.098;13.770;2023-07-20T09:52:29;2.55;;;2.20;;
65751;SDS011;52486;51.098;13.770;2023-07-20T09:54:55;3.05;;;2.22;;
65751;SDS011;52486;51.098;13.770;2023-07-20T09:57:22;4.32;;;2.40;;
65751;SDS011;52486;51.098;13.770;2023-07-20T09:59:49;2.65;;;2.30;;
65751;SDS011;52486;51.098;13.770;2023-07-20T10:02:25;4.25;;;2.20;;
65751;SDS011;52486;51.098;13.770;2023-07-20T10:04:55;2.72;;;2.20;;
65751;SDS011;52486;51.098;13.770;2023-07-20T10:07:24;3.58;;;1.63;;
65751;SDS011;52486;51.098;13.770;2023-07-20T10:09:52;2.67;;;1.80;;
65751;SDS011;52486;51.098;13.770;2023-07-20T10:12:19;2.75;;;1.70;;
65751;SDS011;52486;51.098;13.770;2023-07-20T10:14:59;3.70;;;2.05;;
65751;SDS011;52486;51.098;13.770;2023-07-20T10:17:33;2.00;;;1.90;;
65751;SDS011;52486;51.098;13.770;2023-07-20T10:19:59;2.55;;;2.22;;
65751;SDS011;52486;51.098;13.770;2023-07-20T10:22:29;2.58;;;2.38;;
65751;SDS011;52486;51.098;13.770;2023-07-20T10:24:59;5.13;;;2.15;;
65751;SDS011;52486;51.098;13.770;2023-07-20T10:27:26;3.75;;;1.92;;
65751;SDS011;52486;51.098;13.770;2023-07-20T10:29:52;6.35;;;2.17;;
65751;SDS011;52486;51.098;13.770;2023-07-20T10:32:20;3.28;;;1.85;;
65751;SDS011;52486;51.098;13.770;2023-07-20T10:34:52;2.75;;;2.00;;
65751;SDS011;52486;51.098;13.770;2023-07-20T10:40:23;4.82;;;1.95;;
65751;SDS011;52486;51.098;13.770;2023-07-20T10:43:00;3.20;;;2.00;;
65751;SDS011;52486;51.098;13.770;2023-07-20T10:48:20;1.95;;;1.85;;
65751;SDS011;52486;51.098;13.770;2023-07-20T10:53:39;2.35;;;1.85;;
65751;SDS011;52486;51.098;13.770;2023-07-20T10:56:06;2.60;;;1.80;;
65751;SDS011;52486;51.098;13.770;2023-07-20T10:58:59;2.50;;;1.98;;
65751;SDS011;52486;51.098;13.770;2023-07-20T11:01:35;2.28;;;2.08;;
65751;SDS011;52486;51.098;13.770;2023-07-20T11:04:02;2.17;;;2.00;;
65751;SDS011;52486;51.098;13.770;2023-07-20T11:06:33;3.25;;;1.70;;
65751;SDS011;52486;51.098;13.770;2023-07-20T11:09:08;4.22;;;2.20;;
65751;SDS011;52486;51.098;13.770;2023-07-20T11:11:42;2.90;;;1.95;;
65751;SDS011;52486;51.098;13.770;2023-07-20T11:14:23;2.72;;;1.80;;
65751;SDS011;52486;51.098;13.770;2023-07-20T11:16:52;7.05;;;1.80;;
65751;SDS011;52486;51.098;13.770;2023-07-20T11:19:21;4.38;;;1.88;;
65751;SDS011;52486;51.098;13.770;2023-07-20T11:21:52;4.95;;;1.90;;
65751;SDS011;52486;51.098;13.770;2023-07-20T11:24:19;5.00;;;1.73;;
65751;SDS011;52486;51.098;13.770;2023-07-20T11:26:46;5.22;;;1.92;;
65751;SDS011;52486;51.098;13.770;2023-07-20T11:29:13;5.07;;;2.08;;
65751;SDS011;52486;51.098;13.770;2023-07-20T11:31:39;2.45;;;2.08;;
65751;SDS011;52486;51.098;13.770;2023-07-20T11:34:13;2.13;;;1.73;;
65751;SDS011;52486;51.098;13.770;2023-07-20T11:36:44;2.15;;;1.95;;
65751;SDS011;52486;51.098;13.770;2023-07-20T11:39:11;2.78;;;1.95;;
65751;SDS011;52486;51.098;13.770;2023-07-20T11:41:38;3.92;;;2.15;;
65751;SDS011;52486;51.098;13.770;2023-07-20T11:44:05;2.08;;;1.88;;
65751;SDS011;52486;51.098;13.770;2023-07-20T11:46:32;3.63;;;1.70;;
65751;SDS011;52486;51.098;13.770;2023-07-20T11:48:59;2.28;;;1.65;;
65751;SDS011;52486;51.098;13.770;2023-07-20T11:51:29;2.45;;;1.92;;
65751;SDS011;52486;51.098;13.770;2023-07-20T11:53:55;3.60;;;1.92;;
65751;SDS011;52486;51.098;13.770;2023-07-20T11:56:22;2.55;;;1.88;;
65751;SDS011;52486;51.098;13.770;2023-07-20T11:58:50;5.78;;;1.92;;
65751;SDS011;52486;51.098;13.770;2023-07-20T12:03:47;5.10;;;2.08;;
65751;SDS011;52486;51.098;13.770;2023-07-20T12:06:15;3.60;;;2.10;;
65751;SDS011;52486;51.098;13.770;2023-07-20T12:08:41;8.73;;;2.50;;
65751;SDS011;52486;51.098;13.770;2023-07-20T12:11:09;4.90;;;2.38;;
65751;SDS011;52486;51.098;13.770;2023-07-20T12:13:36;3.17;;;1.80;;
65751;SDS011;52486;51.098;13.770;2023-07-20T12:16:09;2.72;;;2.08;;
65751;SDS011;52486;51.098;13.770;2023-07-20T12:18:38;2.28;;;2.15;;
65751;SDS011;52486;51.098;13.770;2023-07-20T12:21:05;2.22;;;2.03;;
65751;SDS011;52486;51.098;13.770;2023-07-20T12:23:36;2.22;;;2.03;;
65751;SDS011;52486;51.098;13.770;2023-07-20T12:26:06;2.63;;;1.90;;
65751;SDS011;52486;51.098;13.770;2023-07-20T12:28:34;7.53;;;2.05;;
65751;SDS011;52486;51.098;13.770;2023-07-20T12:31:05;4.28;;;2.30;;
65751;SDS011;52486;51.098;13.770;2023-07-20T12:33:31;2.50;;;2.00;;
65751;SDS011;52486;51.098;13.770;2023-07-20T12:35:57;2.05;;;1.83;;
65751;SDS011;52486;51.098;13.770;2023-07-20T12:38:24;2.50;;;2.00;;
65751;SDS011;52486;51.098;13.770;2023-07-20T12:40:52;6.88;;;2.10;;
65751;SDS011;52486;51.098;13.770;2023-07-20T12:43:27;1.88;;;1.77;;
65751;SDS011;52486;51.098;13.770;2023-07-20T12:45:54;2.20;;;2.00;;
65751;SDS011;52486;51.098;13.770;2023-07-20T12:48:20;3.53;;;1.98;;
65751;SDS011;52486;51.098;13.770;2023-07-20T12:50:46;5.38;;;2.08;;
65751;SDS011;52486;51.098;13.770;2023-07-20T12:53:12;2.35;;;2.00;;
65751;SDS011;52486;51.098;13.770;2023-07-20T12:55:38;3.40;;;2.05;;
65751;SDS011;52486;51.098;13.770;2023-07-20T12:58:05;5.93;;;1.83;;
65751;SDS011;52486;51.098;13.770;2023-07-20T13:00:31;4.78;;;1.63;;
65751;SDS011;52486;51.098;13.770;2023-07-20T13:02:57;3.38;;;2.10;;
65751;SDS011;52486;51.098;13.770;2023-07-20T13:05:23;3.97;;;1.90;;
65751;SDS011;52486;51.098;13.770;2023-07-20T13:07:49;2.08;;;1.80;;
65751;SDS011;52486;51.098;13.770;2023-07-20T13:10:15;3.42;;;1.77;;
65751;SDS011;52486;51.098;13.770;2023-07-20T13:12:41;2.55;;;1.95;;
65751;SDS011;52486;51.098;13.770;2023-07-20T13:15:08;3.67;;;1.83;;
65751;SDS011;52486;51.098;13.770;2023-07-20T13:17:35;3.20;;;1.90;;
65751;SDS011;52486;51.098;13.770;2023-07-20T13:20:02;2.03;;;1.83;;
65751;SDS011;52486;51.098;13.770;2023-07-20T13:22:29;1.88;;;1.75;;
65751;SDS011;52486;51.098;13.770;2023-07-20T13:24:55;4.25;;;1.98;;
65751;SDS011;52486;51.098;13.770;2023-07-20T13:27:22;7.72;;;1.73;;
65751;SDS011;52486;51.098;13.770;2023-07-20T13:29:51;6.63;;;1.98;;
65751;SDS011;52486;51.098;13.770;2023-07-20T13:32:17;2.25;;;1.80;;
65751;SDS011;52486;51.098;13.770;2023-07-20T13:34:43;2.53;;;1.80;;
65751;SDS011;52486;51.098;13.770;2023-07-20T13:37:10;2.25;;;1.90;;
65751;SDS011;52486;51.098;13.770;2023-07-20T13:39:36;2.85;;;1.92;;
65751;SDS011;52486;51.098;13.770;2023-07-20T13:42:03;2.55;;;1.80;;
65751;SDS011;52486;51.098;13.770;2023-07-20T13:44:32;2.22;;;1.67;;
65751;SDS011;52486;51.098;13.770;2023-07-20T13:46:59;1.95;;;1.42;;
65751;SDS011;52486;51.098;13.770;2023-07-20T13:49:25;1.70;;;1.60;;
65751;SDS011;52486;51.098;13.770;2023-07-20T13:51:51;2.45;;;1.60;;
65751;SDS011;52486;51.098;13.770;2023-07-20T13:54:17;2.83;;;1.80;;
65751;SDS011;52486;51.098;13.770;2023-07-20T13:56:43;1.55;;;1.45;;
65751;SDS011;52486;51.098;13.770;2023-07-20T13:59:09;3.15;;;1.60;;
65751;SDS011;52486;51.098;13.770;2023-07-20T14:01:36;2.72;;;1.90;;
65751;SDS011;52486;51.098;13.770;2023-07-20T14:04:02;1.80;;;1.70;;
65751;SDS011;52486;51.098;13.770;2023-07-20T14:06:29;4.05;;;1.80;;
65751;SDS011;52486;51.098;13.770;2023-07-20T14:08:59;1.60;;;1.50;;
65751;SDS011;52486;51.098;13.770;2023-07-20T14:11:25;2.45;;;1.63;;
65751;SDS011;52486;51.098;13.770;2023-07-20T14:13:52;2.75;;;1.50;;
65751;SDS011;52486;51.098;13.770;2023-07-20T14:16:19;1.98;;;1.60;;
65751;SDS011;52486;51.098;13.770;2023-07-20T14:18:45;1.50;;;1.40;;
65751;SDS011;52486;51.098;13.770;2023-07-20T14:21:14;4.32;;;2.00;;
65751;SDS011;52486;51.098;13.770;2023-07-20T14:23:40;4.60;;;1.98;;
65751;SDS011;52486;51.098;13.770;2023-07-20T14:26:06;2.17;;;1.67;;
65751;SDS011;52486;51.098;13.770;2023-07-20T14:28:38;1.85;;;1.65;;
65751;SDS011;52486;51.098;13.770;2023-07-20T14:31:04;3.42;;;1.88;;
65751;SDS011;52486;51.098;13.770;2023-07-20T14:33:30;6.78;;;2.10;;
65751;SDS011;52486;51.098;13.770;2023-07-20T14:35:56;2.65;;;2.00;;
65751;SDS011;52486;51.098;13.770;2023-07-20T14:38:23;2.10;;;1.70;;
65751;SDS011;52486;51.098;13.770;2023-07-20T14:40:49;2.03;;;1.65;;
65751;SDS011;52486;51.098;13.770;2023-07-20T14:43:15;3.15;;;1.40;;
65751;SDS011;52486;51.098;13.770;2023-07-20T14:45:41;2.00;;;1.90;;
65751;SDS011;52486;51.098;13.770;2023-07-20T14:48:07;2.25;;;1.70;;
65751;SDS011;52486;51.098;13.770;2023-07-20T14:50:33;2.28;;;1.60;;
65751;SDS011;52486;51.098;13.770;2023-07-20T14:52:59;3.83;;;1.95;;
65751;SDS011;52486;51.098;13.770;2023-07-20T14:55:25;3.05;;;1.77;;